Time;durP1;ratioP1;P1;durP2;ratioP2;P2;SDS_P1;SDS_P2;PMS_P1;PMS_P2;Temp;Humidity;BMP_temperature;BMP_pressure;BME280_temperature;BME280_humidity;BME280_pressure;Samples;Min_cycle;Max_cycle;Signal;HPM_P1;HPM_P2
2022/06/02 00:01:55;;;;;;;14.45;9.63;;;;;;;9.85;90.29;101938.38;5056040;28;20028;-44
2022/06/02 00:04:35;;;;;;;;;;;;;;;9.85;90.51;101938.38;5054448;28;20031;-44
2022/06/02 00:07:16;;;;;;;12.57;9.52;;;;;;;9.81;90.20;101934.47;5055899;28;19916;-44
2022/06/02 00:09:44;;;;;;;13.02;9.50;;;;;;;9.80;90.66;101938.00;5056079;28;20090;-44
2022/06/02 00:12:52;;;;;;;12.90;9.65;;;;;;;9.75;89.95;101944.59;5055394;28;20072;-43
2022/06/02 00:15:36;;;;;;;16.13;10.43;;;;;;;9.57;90.19;101949.81;5055476;28;20491;-44
2022/06/02 00:18:26;;;;;;;14.52;11.00;;;;;;;9.54;90.77;101947.53;5055332;28;20033;-44
2022/06/02 00:21:17;;;;;;;14.63;10.43;;;;;;;9.56;91.80;101948.22;5055529;28;20104;-43
2022/06/02 00:23:51;;;;;;;15.60;10.65;;;;;;;9.58;91.31;101951.44;5055152;28;20045;-44
2022/06/02 00:26:29;;;;;;;16.67;11.77;;;;;;;9.63;91.27;101944.84;5055546;28;20464;-44
2022/06/02 00:29:13;;;;;;;16.55;11.18;;;;;;;9.62;91.41;101952.75;5055126;28;20025;-44
2022/06/02 00:32:06;;;;;;;14.95;10.65;;;;;;;9.61;91.01;101953.69;5055793;28;20094;-45
2022/06/02 00:34:53;;;;;;;14.43;10.82;;;;;;;9.47;90.49;101955.09;5055437;28;20029;-44
2022/06/02 00:37:32;;;;;;;17.08;11.48;;;;;;;9.47;91.39;101953.31;5054522;28;20372;-45
2022/06/02 00:40:00;;;;;;;17.13;11.52;;;;;;;9.47;91.83;101966.22;5055198;28;20380;-45
2022/06/02 00:42:25;;;;;;;16.35;11.23;;;;;;;9.45;91.44;101957.00;5055223;28;20491;-44
2022/06/02 00:44:56;;;;;;;16.20;11.70;;;;;;;9.44;91.81;101963.13;5055126;28;20025;-44
2022/06/02 00:47:53;;;;;;;19.08;12.27;;;;;;;9.42;91.81;101960.69;5055080;28;20117;-43
2022/06/02 00:50:41;;;;;;;16.17;10.57;;;;;;;9.30;91.54;101961.09;5054695;28;20061;-44
2022/06/02 00:53:36;;;;;;;14.60;9.75;;;;;;;9.27;90.48;101972.50;5054525;28;20052;-44
2022/06/02 00:59:47;;;;;;;13.95;9.00;;;;;;;9.10;89.90;101966.41;5055480;28;20502;-44
2022/06/02 01:02:13;;;;;;;12.07;9.00;;;;;;;9.08;89.86;101970.88;5054909;28;20552;-44
2022/06/02 01:04:42;;;;;;;12.57;8.75;;;;;;;9.10;90.20;101966.41;5054566;28;20025;-44
2022/06/02 01:07:19;;;;;;;13.98;9.77;;;;;;;9.05;90.49;101966.03;5054803;28;20053;-44
2022/06/02 01:10:44;;;;;;;14.38;10.18;;;;;;;9.06;90.94;101971.97;5054984;28;20029;-44
2022/06/02 01:13:22;;;;;;;16.00;10.68;;;;;;;8.98;90.75;101967.59;5046403;28;20041;-44
2022/06/02 01:16:07;;;;;;;14.73;11.23;;;;;;;8.93;90.74;101977.53;5054884;28;20025;-43
2022/06/02 01:18:57;;;;;;;20.95;11.30;;;;;;;8.88;91.26;101975.38;5054839;28;20020;-48
2022/06/02 01:21:56;;;;;;;15.90;11.43;;;;;;;8.77;91.01;101980.72;5054538;28;20035;-44
2022/06/02 01:24:49;;;;;;;16.30;11.35;;;;;;;8.65;91.63;101979.31;5054001;28;20037;-42
2022/06/02 01:27:33;;;;;;;14.90;10.50;;;;;;;8.52;91.49;101980.47;5053459;28;20039;-43
2022/06/02 01:30:32;;;;;;;15.30;10.85;;;;;;;8.55;92.25;101979.38;5054157;28;20444;-43
2022/06/02 01:33:10;;;;;;;15.80;10.30;;;;;;;8.70;92.34;101985.66;5054568;28;20364;-43
2022/06/02 01:35:42;;;;;;;13.80;10.23;;;;;;;8.70;91.50;101980.50;5054016;28;20102;-43
2022/06/02 01:38:30;;;;;;;15.43;10.20;;;;;;;8.68;90.80;101974.69;5054293;28;20099;-43
2022/06/02 01:41:10;;;;;;;15.00;10.43;;;;;;;8.69;91.11;101976.31;5054198;28;20025;-43
2022/06/02 01:44:01;;;;;;;15.18;10.40;;;;;;;8.53;91.12;101974.38;5053813;28;20522;-43
2022/06/02 01:46:33;;;;;;;17.83;10.73;;;;;;;8.47;90.91;101974.94;5054068;28;20398;-44
2022/06/02 01:49:22;;;;;;;15.55;10.30;;;;;;;8.47;91.45;101977.53;5053809;28;20025;-43
2022/06/02 01:51:59;;;;;;;13.57;9.70;;;;;;;8.46;90.29;101975.06;5054053;28;20143;-44
2022/06/02 01:54:49;;;;;;;12.65;9.43;;;;;;;8.34;89.83;101979.56;5053823;28;20033;-43
2022/06/02 01:57:42;;;;;;;13.68;9.95;;;;;;;8.37;90.18;101976.72;5053463;28;20033;-43
2022/06/02 02:00:15;;;;;;;13.77;9.48;;;;;;;8.40;90.37;101980.81;5054162;28;20025;-43
2022/06/02 02:03:01;;;;;;;12.77;9.07;;;;;;;8.45;89.71;101976.03;5053563;28;20029;-43
2022/06/02 02:06:06;;;;;;;13.98;9.55;;;;;;;8.42;90.94;101971.19;5053869;28;20017;-44
2022/06/02 02:09:05;;;;;;;12.30;9.70;;;;;;;8.45;90.99;101976.03;5053386;28;20032;-43
2022/06/02 02:11:51;;;;;;;14.77;9.75;;;;;;;8.33;91.33;101983.13;5053276;28;20056;-44
2022/06/02 02:14:38;;;;;;;15.43;10.68;;;;;;;8.43;91.15;101978.78;5053917;28;20031;-43
2022/06/02 02:17:29;;;;;;;17.38;10.23;;;;;;;8.43;90.75;101973.63;5053770;28;20021;-44
2022/06/02 02:20:19;;;;;;;14.70;10.23;;;;;;;8.39;90.45;101990.31;5053341;28;20026;-44
2022/06/02 02:22:58;;;;;;;14.63;10.40;;;;;;;8.36;90.72;101975.09;5053173;28;20059;-43
2022/06/02 02:25:31;;;;;;;14.23;9.80;;;;;;;8.07;89.72;101980.38;5053770;28;20029;-44
2022/06/02 02:28:02;;;;;;;15.38;9.73;;;;;;;8.00;90.42;101976.72;5053522;28;20353;-44
2022/06/02 02:30:46;;;;;;;15.55;10.02;;;;;;;8.07;89.96;101983.75;5051964;28;20025;-44
2022/06/02 02:33:17;;;;;;;;;;;;;;;8.10;90.28;101980.09;5053853;28;20494;-43
2022/06/02 02:35:54;;;;;;;13.68;9.75;;;;;;;8.01;91.58;101979.19;5053158;28;19908;-43
2022/06/02 02:38:37;;;;;;;14.80;10.40;;;;;;;8.00;91.31;101984.44;5053442;28;20032;-44
2022/06/02 02:41:06;;;;;;;15.05;10.45;;;;;;;7.98;91.60;101986.38;5053650;28;20043;-44
2022/06/02 02:43:54;;;;;;;16.27;10.65;;;;;;;7.95;91.90;101979.75;5053320;28;20029;-44
2022/06/02 02:46:32;;;;;;;17.02;11.32;;;;;;;7.93;90.79;101979.06;5053607;28;20036;-43
2022/06/02 02:49:25;;;;;;;17.10;12.10;;;;;;;7.99;91.59;101983.63;5053613;28;20098;-43
2022/06/02 02:52:07;;;;;;;14.73;10.45;;;;;;;7.94;91.33;101978.13;5051750;28;20525;-44
2022/06/02 02:54:59;;;;;;;16.08;11.10;;;;;;;7.80;91.13;101979.38;5053483;28;20119;-43
2022/06/02 02:57:47;;;;;;;14.70;10.23;;;;;;;7.91;90.97;101986.09;5053233;28;20036;-46
2022/06/02 03:00:18;;;;;;;14.93;10.35;;;;;;;8.00;89.79;101976.72;5053239;28;20081;-44
2022/06/02 03:02:49;;;;;;;15.25;10.98;;;;;;;7.96;89.64;101983.13;5053433;28;20028;-44
2022/06/02 03:05:31;;;;;;;16.05;10.98;;;;;;;8.03;89.51;101982.44;5053105;28;20025;-43
2022/06/02 03:08:24;;;;;;;17.50;11.18;;;;;;;8.03;89.37;101977.28;5055525;28;20028;-43
2022/06/02 03:10:59;;;;;;;16.63;10.95;;;;;;;7.93;89.81;101985.97;5056817;28;20384;-43
2022/06/02 03:14:10;;;;;;;18.15;12.02;;;;;;;7.98;89.58;101984.59;5055457;28;20024;-43
2022/06/02 03:16:38;;;;;;;16.90;12.27;;;;;;;7.75;89.65;101988.47;5045718;28;20372;-44
2022/06/02 03:19:06;;;;;;;17.02;12.20;;;;;;;7.81;91.54;101998.19;5056592;28;20021;-44
2022/06/02 03:21:40;;;;;;;19.42;12.60;;;;;;;7.85;91.44;102002.09;5056825;28;20035;-44
2022/06/02 03:24:41;;;;;;;17.92;12.20;;;;;;;7.94;90.89;102003.03;5056339;28;20116;-44
2022/06/02 03:27:43;;;;;;;20.05;12.27;;;;;;;7.95;90.70;102009.81;5056366;28;20041;-45
2022/06/02 03:30:24;;;;;;;21.27;11.52;;;;;;;7.82;90.60;102010.09;5056948;28;20100;-44
2022/06/02 03:33:27;;;;;;;16.42;11.45;;;;;;;7.88;91.25;102010.38;5056330;28;20025;-44
2022/06/02 03:36:08;;;;;;;18.27;12.32;;;;;;;7.84;90.67;102003.88;5054911;28;20053;-43
2022/06/02 03:39:00;;;;;;;16.60;11.85;;;;;;;7.73;90.38;102010.94;5056680;28;20478;-43
2022/06/02 03:41:50;;;;;;;18.00;11.80;;;;;;;7.60;90.69;102016.38;5056456;28;20375;-43
2022/06/02 03:44:43;;;;;;;17.83;11.88;;;;;;;7.56;90.72;102015.81;5056371;28;20025;-43
2022/06/02 03:47:23;;;;;;;20.27;12.40;;;;;;;7.60;91.74;102013.81;5056527;28;20029;-43
2022/06/02 03:50:14;;;;;;;20.23;13.15;;;;;;;7.77;91.92;102012.28;5056349;28;20455;-43
2022/06/02 03:52:51;;;;;;;18.42;12.35;;;;;;;7.75;90.45;102021.91;5056229;28;20024;-43
2022/06/02 03:55:27;;;;;;;17.65;11.98;;;;;;;7.83;90.25;102028.00;5055863;28;20028;-43
2022/06/02 03:57:53;;;;;;;16.63;11.48;;;;;;;7.71;89.93;102025.69;5056100;28;20104;-44
2022/06/02 04:00:21;;;;;;;18.55;11.80;;;;;;;7.63;89.59;102026.41;5056128;28;20056;-44
2022/06/02 04:02:50;;;;;;;17.23;11.65;;;;;;;7.61;89.97;102030.84;5056100;28;20033;-44
2022/06/02 04:05:15;;;;;;;17.08;11.80;;;;;;;7.71;91.00;102029.09;5055794;28;20024;-43
2022/06/02 04:08:12;;;;;;;18.83;12.38;;;;;;;7.93;90.39;102032.31;5055466;28;20028;-43
2022/06/02 04:10:56;;;;;;;20.52;12.02;;;;;;;8.03;89.13;102028.75;5055080;28;20071;-44
2022/06/02 04:13:59;;;;;;;21.77;13.25;;;;;;;8.08;88.63;102042.00;5055327;28;20448;-43
2022/06/02 04:16:42;;;;;;;23.50;13.55;;;;;;;8.19;89.64;102038.47;5055428;28;20025;-41
2022/06/02 04:22:55;;;;;;;21.55;13.65;;;;;;;8.30;88.34;102051.16;5055264;28;20036;-44
2022/06/02 04:25:48;;;;;;;21.58;13.45;;;;;;;8.41;88.21;102052.81;5039103;28;20084;-44
2022/06/02 04:28:34;;;;;;;;;;;;;;;8.49;88.91;102041.81;5055646;28;20071;-43
2022/06/02 04:31:39;;;;;;;21.50;13.20;;;;;;;8.35;88.29;102049.00;5047867;28;19940;-43
2022/06/02 04:34:17;;;;;;;23.20;13.75;;;;;;;8.25;90.37;102053.34;5053806;28;20040;-44
2022/06/02 04:36:55;;;;;;;22.35;14.80;;;;;;;8.28;90.99;102055.66;5055624;28;20021;-43
2022/06/02 04:39:39;;;;;;;20.40;14.23;;;;;;;8.49;90.15;102063.22;5055180;28;20024;-44
2022/06/02 04:42:41;;;;;;;22.83;15.35;;;;;;;8.66;90.68;102060.81;5055175;28;20025;-44
2022/06/02 04:45:25;;;;;;;21.77;14.80;;;;;;;8.83;90.78;102067.78;5054773;28;20096;-43
2022/06/02 04:48:05;;;;;;;23.27;15.57;;;;;;;8.98;89.97;102063.78;5055069;28;20103;-43
2022/06/02 04:50:31;;;;;;;23.90;16.25;;;;;;;9.13;89.73;102071.03;5054686;28;20028;-43
2022/06/02 04:53:10;;;;;;;24.00;15.50;;;;;;;9.16;89.44;102076.69;5055194;28;20021;-43
2022/06/02 04:56:12;;;;;;;23.55;15.55;;;;;;;9.33;89.81;102079.44;5053468;28;20468;-43
2022/06/02 04:59:00;;;;;;;21.20;14.93;;;;;;;9.46;89.29;102074.72;5043746;28;20071;-43
2022/06/02 05:01:28;;;;;;;28.13;16.05;;;;;;;9.52;89.42;102070.72;5054764;28;20025;-46
2022/06/02 05:04:03;;;;;;;24.38;16.33;;;;;;;9.62;88.48;102085.19;5054412;28;20430;-44
2022/06/02 05:06:42;;;;;;;24.08;15.65;;;;;;;9.79;88.64;102080.16;5054741;28;20044;-42
2022/06/02 05:09:31;;;;;;;20.05;14.65;;;;;;;9.88;88.70;102080.06;5054761;28;20405;-44
2022/06/02 05:12:02;;;;;;;20.08;15.15;;;;;;;9.94;88.35;102084.63;5054396;28;20032;-44
2022/06/02 05:14:42;;;;;;;22.83;15.68;;;;;;;10.05;88.87;102087.94;5054237;28;20025;-43
2022/06/02 05:17:36;;;;;;;22.02;15.50;;;;;;;10.15;88.65;102084.28;5054691;28;20024;-43
2022/06/02 05:20:20;;;;;;;23.17;15.65;;;;;;;10.35;88.74;102084.09;5054413;28;20029;-43
2022/06/02 05:23:07;;;;;;;24.98;16.25;;;;;;;10.47;88.42;102094.97;5054412;28;20028;-44
2022/06/02 05:26:01;;;;;;;21.50;15.48;;;;;;;10.65;88.40;102090.56;5054245;28;20079;-43
2022/06/02 05:28:56;;;;;;;23.10;14.77;;;;;;;10.77;87.55;102093.69;5053985;28;20078;-44
2022/06/02 05:31:21;;;;;;;21.45;13.45;;;;;;;11.01;87.19;102103.28;5054387;28;20055;-45
2022/06/02 05:34:04;;;;;;;20.65;14.27;;;;;;;11.19;86.88;102101.41;5054145;28;20481;-43
2022/06/02 05:36:48;;;;;;;18.70;14.02;;;;;;;11.36;85.96;102102.22;5054072;28;20036;-44
2022/06/02 05:39:29;;;;;;;17.63;11.90;;;;;;;11.56;86.30;102099.34;5054039;28;20040;-44
2022/06/02 05:42:18;;;;;;;20.23;11.73;;;;;;;12.24;85.14;102111.16;5053894;28;20032;-44
2022/06/02 05:44:55;;;;;;;14.75;9.60;;;;;;;19.43;60.24;102119.16;5053897;28;20025;-44
2022/06/02 05:47:51;;;;;;;14.65;8.70;;;;;;;23.14;45.64;102117.25;5053884;28;20075;-44
2022/06/02 05:50:36;;;;;;;11.93;7.80;;;;;;;24.80;41.00;102114.69;5053573;28;20070;-44
2022/06/02 05:53:19;;;;;;;9.88;7.30;;;;;;;25.51;39.04;102111.03;5053587;28;20020;-44
2022/06/02 05:56:03;;;;;;;10.95;6.53;;;;;;;25.69;38.93;102115.09;5053791;28;20066;-44
2022/06/02 05:58:43;;;;;;;7.65;5.47;;;;;;;25.72;37.90;102112.75;5053436;28;20479;-43
2022/06/02 06:01:46;;;;;;;9.60;5.18;;;;;;;26.22;37.65;102110.63;5051240;28;20025;-44
2022/06/02 06:04:27;;;;;;;7.05;5.22;;;;;;;26.53;37.17;102114.19;5052529;28;20033;-43
2022/06/02 06:07:01;;;;;;;6.80;4.63;;;;;;;26.46;37.34;102111.75;5053020;28;20021;-42
2022/06/02 06:09:38;;;;;;;5.78;4.13;;;;;;;26.42;37.36;102115.19;5052688;28;20111;-43
2022/06/02 06:12:25;;;;;;;6.82;4.38;;;;;;;26.22;37.23;102126.53;5053013;28;20032;-43
2022/06/02 06:14:59;;;;;;;6.70;4.10;;;;;;;26.80;35.90;102110.50;5053092;28;20033;-43
2022/06/02 06:17:31;;;;;;;8.10;4.47;;;;;;;23.17;41.13;102114.13;5052830;28;20443;-43
2022/06/02 06:20:06;;;;;;;7.80;5.20;;;;;;;25.25;39.31;102120.66;5053347;28;20048;-43
2022/06/02 06:22:58;;;;;;;7.55;4.40;;;;;;;22.06;46.43;102117.00;5052879;28;20435;-42
2022/06/02 06:25:50;;;;;;;12.80;3.75;;;;;;;18.30;54.17;102117.09;5052497;28;20037;-42
2022/06/02 06:28:23;;;;;;;8.30;3.80;;;;;;;22.97;44.04;102119.84;5053514;28;20100;-42
2022/06/02 06:31:07;;;;;;;;;;;;;;;25.79;38.67;102115.19;5053766;28;20349;-42
2022/06/02 06:34:06;;;;;;;5.97;3.28;;;;;;;22.36;45.23;102118.69;5053377;28;19963;-43
2022/06/02 06:36:34;;;;;;;6.22;3.55;;;;;;;25.40;37.63;102116.25;5022089;28;20060;-42
2022/06/02 06:39:13;;;;;;;8.32;3.40;;;;;;;21.13;46.45;102115.09;5053829;28;20098;-42
2022/06/02 06:42:28;;;;;;;8.55;3.50;;;;;;;23.64;42.16;102116.41;5056613;28;20090;-42
2022/06/02 06:45:06;;;;;;;5.07;3.30;;;;;;;20.72;47.54;102112.22;5043443;28;20044;-41
2022/06/02 06:47:45;;;;;;;4.57;3.28;;;;;;;19.60;51.52;102114.97;5057061;28;20032;-42
2022/06/02 06:50:17;;;;;;;6.10;3.00;;;;;;;19.41;51.56;102115.13;5055686;28;20117;-43
2022/06/02 06:53:05;;;;;;;5.15;2.85;;;;;;;19.00;50.62;102113.81;5057057;28;20076;-44
2022/06/02 06:55:39;;;;;;;7.47;2.58;;;;;;;18.93;52.51;102119.88;5056895;28;20016;-44
2022/06/02 06:58:20;;;;;;;5.53;3.03;;;;;;;18.13;53.78;102118.53;5057221;28;20035;-44
2022/06/02 07:01:26;;;;;;;4.72;2.15;;;;;;;17.95;55.84;102117.38;5056992;28;20025;-44
2022/06/02 07:04:09;;;;;;;5.82;2.58;;;;;;;18.86;54.07;102132.19;5057055;28;20524;-42
2022/06/02 07:06:53;;;;;;;;;;;;;;;18.46;53.24;102126.28;5056528;28;20031;-43
2022/06/02 07:09:24;;;;;;;5.53;2.30;;;;;;;18.01;55.03;102123.56;5056520;28;20023;-43
2022/06/02 07:14:54;;;;;;;9.40;2.38;;;;;;;16.85;58.35;102137.69;5056405;28;20087;-42
2022/06/02 07:17:29;;;;;;;7.88;2.50;;;;;;;16.78;59.96;102141.28;5056256;28;20037;-43
2022/06/02 07:20:24;;;;;;;3.38;2.10;;;;;;;16.58;59.10;102146.38;5057020;28;20128;-42
2022/06/02 07:23:00;;;;;;;5.43;2.60;;;;;;;16.46;61.12;102148.75;5050227;28;20140;-42
2022/06/02 07:25:44;;;;;;;4.30;2.40;;;;;;;16.07;60.52;102157.91;5056256;28;20486;-44
2022/06/02 07:28:27;;;;;;;5.10;2.50;;;;;;;15.74;60.59;102163.69;5056748;28;20451;-43
2022/06/02 07:31:20;;;;;;;4.85;2.90;;;;;;;16.72;58.60;102155.91;5056324;28;20028;-44
2022/06/02 07:34:00;;;;;;;8.43;2.65;;;;;;;18.41;54.11;102163.56;5056577;28;20025;-44
2022/06/02 07:36:48;;;;;;;4.88;2.20;;;;;;;18.82;52.21;102178.16;5056218;28;20079;-44
2022/06/02 07:39:32;;;;;;;4.30;2.10;;;;;;;19.65;51.40;102166.81;5056654;28;20112;-44
2022/06/02 07:42:36;;;;;;;4.25;2.13;;;;;;;19.71;49.44;102176.47;5056597;28;20406;-43
2022/06/02 07:45:27;;;;;;;5.55;2.08;;;;;;;20.12;48.91;102161.97;5055742;28;20392;-43
2022/06/02 07:48:13;;;;;;;3.50;1.83;;;;;;;20.14;48.39;102175.69;5054495;28;20020;-41
2022/06/02 07:50:49;;;;;;;5.03;1.90;;;;;;;20.26;48.89;102171.31;5054816;28;20033;-41
2022/06/02 07:53:58;;;;;;;4.53;1.80;;;;;;;20.19;47.71;102172.38;5054096;28;20134;-44
2022/06/02 07:56:32;;;;;;;4.88;1.70;;;;;;;20.59;45.66;102172.78;5055218;28;20044;-41
2022/06/02 07:58:57;;;;;;;5.90;1.88;;;;;;;20.08;48.34;102173.09;5056230;28;20096;-43
2022/06/02 08:01:23;;;;;;;4.00;1.90;;;;;;;19.97;49.96;102172.00;5055710;28;20447;-43
2022/06/02 08:04:06;;;;;;;5.60;1.70;;;;;;;20.85;46.95;102168.25;5056050;28;20374;-43
2022/06/02 08:07:14;;;;;;;4.97;1.80;;;;;;;20.32;47.06;102174.09;5054266;28;20079;-43
2022/06/02 08:10:03;;;;;;;4.45;1.70;;;;;;;20.65;45.73;102185.03;5050869;28;20044;-43
2022/06/02 08:12:49;;;;;;;5.65;1.58;;;;;;;20.16;47.17;102186.75;5055444;28;20021;-43
2022/06/02 08:15:17;;;;;;;3.97;1.58;;;;;;;20.43;46.78;102182.03;5055446;28;20025;-43
2022/06/02 08:18:20;;;;;;;3.25;1.40;;;;;;;20.55;46.87;102181.34;5054662;28;20033;-43
2022/06/02 08:21:20;;;;;;;4.15;1.50;;;;;;;20.66;46.04;102191.13;5055329;28;20075;-42
2022/06/02 08:24:10;;;;;;;2.85;1.30;;;;;;;20.75;43.50;102183.75;5054268;28;20044;-43
2022/06/02 08:26:47;;;;;;;2.75;1.30;;;;;;;20.99;45.09;102189.91;5054343;28;20111;-43
2022/06/02 08:29:34;;;;;;;4.65;1.80;;;;;;;20.32;44.81;102189.84;5054545;28;20099;-44
2022/06/02 08:32:25;;;;;;;4.72;1.60;;;;;;;20.05;44.33;102196.16;5054025;28;20040;-43
2022/06/02 08:34:53;;;;;;;5.97;1.88;;;;;;;20.88;45.96;102199.31;5054949;28;20016;-42
2022/06/02 08:37:57;;;;;;;4.57;1.48;;;;;;;21.34;45.04;102203.16;5055239;28;20112;-43
2022/06/02 08:40:41;;;;;;;3.55;1.48;;;;;;;21.67;45.41;102197.44;5055069;28;20063;-42
2022/06/02 08:43:34;;;;;;;3.60;1.30;;;;;;;21.68;43.07;102198.25;5054748;28;20025;-43
2022/06/02 08:46:24;;;;;;;5.90;1.63;;;;;;;20.91;44.97;102194.41;5053500;28;20033;-42
2022/06/02 08:48:58;;;;;;;4.10;1.23;;;;;;;20.60;45.71;102203.31;5055133;28;20063;-42
2022/06/02 08:51:45;;;;;;;2.58;1.40;;;;;;;19.73;46.41;102205.06;5054898;28;20029;-42
2022/06/02 08:54:32;;;;;;;2.60;1.30;;;;;;;18.71;49.19;102203.13;5054833;28;20087;-41
2022/06/02 08:57:19;;;;;;;2.47;1.40;;;;;;;18.80;49.37;102203.75;5054716;28;20021;-42
2022/06/02 08:59:59;;;;;;;3.10;1.23;;;;;;;18.48;48.27;102203.59;5054495;28;20035;-43
2022/06/02 09:02:45;;;;;;;3.75;1.10;;;;;;;18.22;50.13;102201.84;5053699;28;20028;-43
2022/06/02 09:05:36;;;;;;;3.38;1.10;;;;;;;17.94;48.02;102198.63;5054207;28;20104;-43
2022/06/02 09:08:31;;;;;;;2.92;1.40;;;;;;;18.51;46.65;102204.22;5054981;28;20025;-40
2022/06/02 09:11:27;;;;;;;3.13;1.50;;;;;;;20.46;43.73;102207.06;5048675;28;20044;-42
2022/06/02 09:14:17;;;;;;;4.18;1.20;;;;;;;20.27;42.69;102209.66;5053380;28;20422;-42
2022/06/02 09:16:57;;;;;;;5.00;1.20;;;;;;;19.67;41.64;102217.22;5052468;28;20025;-42
2022/06/02 09:19:35;;;;;;;2.65;1.40;;;;;;;19.93;42.99;102212.78;5053785;28;20426;-42
2022/06/02 09:22:09;;;;;;;4.43;1.30;;;;;;;20.93;41.43;102208.16;5054077;28;20028;-41
2022/06/02 09:24:58;;;;;;;1.83;1.20;;;;;;;21.74;38.84;102207.84;5054004;28;20041;-42
2022/06/02 09:27:35;;;;;;;4.38;1.45;;;;;;;21.67;37.04;102205.34;5054406;28;20487;-43
2022/06/02 09:30:23;;;;;;;2.72;1.30;;;;;;;22.17;37.05;102206.72;5054265;28;20337;-43
2022/06/02 09:36:24;;;;;;;2.42;1.10;;;;;;;22.83;36.77;102208.13;5053817;28;20044;-41
2022/06/02 09:39:34;;;;;;;2.47;0.90;;;;;;;22.99;36.97;102217.16;5053738;28;20071;-40
2022/06/02 09:42:28;;;;;;;3.33;1.38;;;;;;;22.98;36.05;102218.19;5053004;28;20025;-42
2022/06/02 09:45:14;;;;;;;3.03;1.30;;;;;;;22.84;37.69;102214.19;5053252;28;20068;-42
2022/06/02 09:48:01;;;;;;;4.63;1.50;;;;;;;23.44;35.74;102216.34;5053980;28;20029;-43
2022/06/02 09:50:56;;;;;;;2.20;1.20;;;;;;;23.12;38.11;102208.16;5053880;28;20471;-41
2022/06/02 09:53:30;;;;;;;2.03;1.30;;;;;;;23.19;36.64;102208.81;5053599;28;20052;-42
2022/06/02 09:56:13;;;;;;;4.82;1.35;;;;;;;21.21;40.07;102206.78;5053262;28;20029;-41
2022/06/02 09:59:05;;;;;;;3.72;1.35;;;;;;;20.22;39.80;102209.50;5053937;28;20468;-42
2022/06/02 10:01:54;;;;;;;5.68;1.92;;;;;;;19.85;41.66;102203.34;5052306;28;20029;-42
2022/06/02 10:04:19;;;;;;;4.35;1.83;;;;;;;19.43;44.16;102203.03;5053302;28;20534;-41
2022/06/02 10:07:03;;;;;;;2.63;1.40;;;;;;;19.17;47.68;102199.56;5053667;28;20029;-43
2022/06/02 10:09:50;;;;;;;5.70;1.98;;;;;;;19.60;44.99;102201.50;5053565;28;20706;-42
2022/06/02 10:12:55;;;;;;;2.40;1.40;;;;;;;21.25;42.16;102194.00;5052044;28;20361;-42
2022/06/02 10:15:29;;;;;;;3.35;1.50;;;;;;;21.55;39.30;102188.72;5053327;28;20024;-44
2022/06/02 10:17:56;;;;;;;2.67;1.50;;;;;;;20.86;40.94;102188.22;5053171;28;20033;-44
2022/06/02 10:20:39;;;;;;;4.53;1.50;;;;;;;21.05;38.87;102184.56;5052803;28;20021;-43
2022/06/02 10:23:22;;;;;;;4.05;1.60;;;;;;;20.36;43.82;102185.75;5053076;28;20029;-43
2022/06/02 10:26:01;;;;;;;2.45;1.40;;;;;;;20.14;43.65;102191.44;5053347;28;20076;-42
2022/06/02 10:28:57;;;;;;;5.43;1.85;;;;;;;19.66;43.12;102197.25;5053775;28;20045;-41
2022/06/02 10:31:42;;;;;;;2.65;1.45;;;;;;;19.10;42.79;102188.31;5053447;28;20029;-43
2022/06/02 10:34:38;;;;;;;4.03;1.52;;;;;;;18.88;45.12;102184.38;5052870;28;20035;-42
2022/06/02 10:37:39;;;;;;;3.58;1.75;;;;;;;18.87;43.39;102188.81;5052708;28;20032;-42
2022/06/02 10:40:14;;;;;;;3.97;1.60;;;;;;;19.00;43.02;102182.72;5053539;28;20075;-43
2022/06/02 10:42:42;;;;;;;3.75;1.50;;;;;;;20.59;38.05;102175.41;5053194;28;20028;-42
2022/06/02 10:45:34;;;;;;;3.15;1.73;;;;;;;21.67;38.24;102179.03;5052729;28;20086;-42
2022/06/02 10:48:18;;;;;;;2.47;1.40;;;;;;;21.16;37.39;102173.28;5047219;28;20395;-41
2022/06/02 10:51:05;;;;;;;3.55;1.52;;;;;;;21.61;36.43;102178.13;5052995;28;20021;-42
2022/06/02 10:54:08;;;;;;;4.43;1.52;;;;;;;21.76;35.71;102171.59;5053519;28;20438;-42
2022/06/02 10:56:44;;;;;;;;;;;;;;;21.63;37.64;102175.25;5053202;28;20021;-42
2022/06/02 10:59:46;;;;;;;3.45;1.52;;;;;;;21.88;36.76;102176.88;5053145;28;20278;-43
2022/06/02 11:02:49;;;;;;;2.73;1.50;;;;;;;21.89;36.55;102176.63;5053149;28;20021;-43
2022/06/02 11:05:59;;;;;;;2.67;1.55;;;;;;;23.03;36.31;102172.66;5052993;28;20360;-43
2022/06/02 11:08:50;;;;;;;4.53;1.23;;;;;;;23.50;34.46;102167.91;5052796;28;20036;-43
2022/06/02 11:11:18;;;;;;;3.00;1.55;;;;;;;23.95;34.69;102171.53;5052919;28;20033;-43
2022/06/02 11:14:02;;;;;;;3.13;1.30;;;;;;;24.13;36.08;102171.22;5052847;28;20028;-43
2022/06/02 11:16:54;;;;;;;3.17;1.30;;;;;;;22.78;34.95;102162.44;5052956;28;20028;-43
2022/06/02 11:19:26;;;;;;;1.95;1.40;;;;;;;21.03;38.84;102151.63;5051199;28;20134;-42
2022/06/02 11:22:00;;;;;;;4.43;1.40;;;;;;;20.37;39.28;102153.22;5052182;28;20515;-44
2022/06/02 11:24:56;;;;;;;2.88;1.52;;;;;;;20.09;41.24;102151.09;5052691;28;20049;-42
2022/06/02 11:27:21;;;;;;;2.20;1.30;;;;;;;21.99;39.85;102144.50;5053616;28;20037;-43
2022/06/02 11:30:04;;;;;;;1.30;0.93;;;;;;;22.56;37.25;102138.56;5056057;28;20048;-43
2022/06/02 11:32:47;;;;;;;4.28;1.45;;;;;;;23.16;37.27;102143.34;5055876;28;20342;-44
2022/06/02 11:35:42;;;;;;;4.93;1.63;;;;;;;22.12;36.04;102132.91;5055960;28;20021;-42
2022/06/02 11:38:50;;;;;;;3.47;1.48;;;;;;;23.24;35.04;102135.06;5056145;28;20060;-43
2022/06/02 11:41:34;;;;;;;3.63;1.45;;;;;;;23.02;34.51;102136.78;5050150;28;20044;-42
2022/06/02 11:44:12;;;;;;;2.42;1.35;;;;;;;21.36;35.65;102138.00;5055967;28;20029;-44
2022/06/02 11:47:02;;;;;;;3.42;1.50;;;;;;;21.53;36.27;102138.97;5056189;28;20033;-44
2022/06/02 11:49:57;;;;;;;3.25;1.67;;;;;;;22.43;35.50;102135.16;5055680;28;20490;-43
2022/06/02 11:52:40;;;;;;;3.28;1.58;;;;;;;23.07;35.46;102145.59;5055891;28;20403;-44
2022/06/02 11:55:17;;;;;;;5.40;1.60;;;;;;;23.05;36.61;102142.41;5056083;28;20135;-43
2022/06/02 11:58:13;;;;;;;4.00;1.60;;;;;;;23.37;36.19;102137.38;5055620;28;20463;-45
2022/06/02 12:01:00;;;;;;;2.65;1.48;;;;;;;23.11;36.66;102143.28;5056152;28;20021;-41
2022/06/02 12:03:53;;;;;;;3.08;1.67;;;;;;;22.89;39.31;102133.38;5055538;28;20112;-40
2022/06/02 12:06:39;;;;;;;4.28;1.63;;;;;;;21.12;38.90;102132.72;5055558;28;20047;-42
2022/06/02 12:09:22;;;;;;;4.15;1.33;;;;;;;20.84;38.80;102129.88;5055403;28;20399;-41
2022/06/02 12:11:59;;;;;;;2.67;1.60;;;;;;;21.02;39.99;102134.28;5055687;28;20605;-41
2022/06/02 12:14:28;;;;;;;4.13;1.75;;;;;;;21.84;38.59;102131.81;5055469;28;20040;-41
2022/06/02 12:17:07;;;;;;;5.28;1.70;;;;;;;22.20;39.05;102122.84;5055711;28;20025;-43
2022/06/02 12:19:51;;;;;;;3.03;1.70;;;;;;;22.02;38.36;102125.59;5055622;28;20352;-42
2022/06/02 12:22:30;;;;;;;3.15;1.73;;;;;;;22.49;38.37;102112.34;5055543;28;20021;-42
2022/06/02 12:25:14;;;;;;;3.72;1.80;;;;;;;22.44;38.63;102115.72;5055293;28;20507;-42
2022/06/02 12:27:54;;;;;;;4.93;1.65;;;;;;;22.33;35.92;102126.25;5055565;28;20024;-44
2022/06/02 12:30:25;;;;;;;6.05;2.47;;;;;;;21.96;37.06;102116.00;5055656;28;20025;-42
2022/06/02 12:33:03;;;;;;;6.95;2.28;;;;;;;22.08;37.20;102119.41;5054965;28;20036;-43
2022/06/02 12:35:48;;;;;;;4.60;1.95;;;;;;;23.07;36.17;102121.06;5055146;28;20521;-42
2022/06/02 12:38:23;;;;;;;9.60;2.30;;;;;;;21.46;38.30;102125.13;5054569;28;20028;-41
2022/06/02 12:41:10;;;;;;;11.80;2.10;;;;;;;21.59;38.92;102119.66;5055231;28;20037;-42
2022/06/02 12:44:17;;;;;;;10.23;2.30;;;;;;;22.42;37.64;102119.59;5054756;28;20029;-43
2022/06/02 12:46:58;;;;;;;2.50;1.60;;;;;;;22.55;36.16;102123.78;5035501;28;20037;-42
2022/06/02 12:49:47;;;;;;;3.83;1.73;;;;;;;22.92;37.30;102122.38;5055041;28;20025;-43
2022/06/02 12:52:47;;;;;;;5.13;2.00;;;;;;;22.49;35.69;102113.16;5054616;28;20024;-41
2022/06/02 12:55:24;;;;;;;4.18;1.70;;;;;;;22.76;36.87;102109.97;5054521;28;20053;-42
2022/06/02 12:57:56;;;;;;;4.10;1.50;;;;;;;21.49;36.07;102114.19;5054797;28;20386;-42